DW8548 Weather Reports


Display with metric or nautical units.
time (UTC)temp
F
wind
direction
speed
MPH
gust
MPH
rain 1hr
in
rain 24hr
in
rain mn
in
humidity
%
barometer
mb
20221127025306 72 162 2.0 8.0 0.00 0.00 0.00 49 1018.2
20221127024804 71 160 3.0 9.0 0.00 0.00 0.00 47 1018.2
20221127024602 70 166 4.0 11.0 0.00 0.00 0.00 46 1018.2
20221127023805 70 153 3.0 8.0 0.00 0.00 0.00 49 1018.3
20221127023304 70 80 3.0 7.0 0.00 0.00 0.00 48 1018.4
20221127023058 70 0 2.0 11.0 0.00 0.00 0.00 50 1018.4
20221127022804 70 156 5.0 10.0 0.00 0.00 0.00 48 1018.5
20221127022305 69 124 2.0 12.0 0.00 0.00 0.00 48 1018.5
20221127021804 69 174 3.0 12.0 0.00 0.00 0.00 48 1018.6
20221127021559 69 90 2.0 9.0 0.00 0.00 0.00 48 1018.6
20221127021304 69 68 2.0 5.0 0.00 0.00 0.00 51 1018.6
20221127020804 70 197 2.0 9.0 0.00 0.00 0.00 49 1018.7
20221127020304 69 112 2.0 7.0 0.00 0.00 0.00 51 1018.7
20221127020101 68 0 2.0 9.0 0.00 0.00 0.00 57 1018.7
20221127014557 67 133 2.0 7.0 0.00 0.00 0.00 50 1018.9
20221127014304 67 135 2.0 7.0 0.00 0.00 0.00 53 1018.9
20221127013804 67 92 3.0 6.0 0.00 0.00 0.00 54 1019.0
20221127013304 67 138 2.0 9.0 0.00 0.00 0.00 53 1019.0
20221127013100 67 127 3.0 12.0 0.00 0.00 0.00 53 1019.0
20221127012305 66 101 4.0 12.0 0.00 0.00 0.00 54 1019.1
20221127011803 66 107 2.0 7.0 0.00 0.00 0.00 54 1019.1
20221127011609 66 90 2.0 11.0 0.00 0.00 0.00 54 1019.1
20221127011304 66 94 1.0 12.0 0.00 0.00 0.00 56 1019.1
20221127010804 67 105 2.0 7.0 0.00 0.00 0.00 54 1019.2
20221127010105 65 111 3.0 12.0 0.00 0.00 0.00 56 1019.2
20221127004804 66 67 2.0 7.0 0.00 0.00 0.00 57 1019.2
20221127004619 65 66 1.0 8.0 0.00 0.00 0.00 56 1019.2
20221127004304 65 102 2.0 8.0 0.00 0.00 0.00 57 1019.3
20221127003805 65 144 3.0 7.0 0.00 0.00 0.00 57 1019.1
20221127003304 65 64 3.0 8.0 0.00 0.00 0.00 57 1019.2
20221127003059 64 97 3.0 11.0 0.00 0.00 0.00 58 1019.1
20221127002804 64 86 3.0 8.0 0.00 0.00 0.00 58 1019.2
20221127002305 64 131 3.0 12.0 0.00 0.00 0.00 58 1019.2
20221127001803 64 59 4.0 10.0 0.00 0.00 0.00 58 1019.3
20221127001638 63 103 3.0 11.0 0.00 0.00 0.00 58 1019.2
20221127000804 64 94 3.0 12.0 0.00 0.00 0.00 60 1019.2
20221127000304 63 139 2.0 7.0 0.00 0.00 0.00 61 1019.2
20221127000120 62 113 2.0 13.0 0.00 0.00 0.00 61 1019.2
20221126235804 62 104 4.0 12.0 0.00 0.00 0.00 61 1019.3
20221126235306 62 73 5.0 13.0 0.00 0.00 0.00 61 1019.3
20221126234804 62 55 6.0 12.0 0.00 0.00 0.00 62 1019.3
20221126234600 62 37 4.0 12.0 0.00 0.00 0.00 61 1019.2
20221126234304 62 112 4.0 8.0 0.00 0.00 0.00 62 1019.3
20221126233107 61 115 2.0 10.0 0.00 0.00 0.00 63 1019.3
20221126232804 61 142 4.0 10.0 0.00 0.00 0.00 63 1019.3
20221126232305 61 104 3.0 9.0 0.00 0.00 0.00 65 1019.2
20221126231804 61 129 5.0 10.0 0.00 0.00 0.00 63 1019.2
20221126231604 60 163 2.0 11.0 0.00 0.00 0.00 63 1019.2
20221126231304 60 88 2.0 12.0 0.00 0.00 0.00 66 1019.1
20221126230804 60 119 3.0 10.0 0.00 0.00 0.00 65 1019.2
20221126230304 60 106 3.0 12.0 0.00 0.00 0.00 66 1019.2
20221126230105 59 134 4.0 11.0 0.00 0.00 0.00 65 1019.2
20221126225803 60 76 3.0 12.0 0.00 0.00 0.00 66 1019.3
20221126224804 59 76 1.0 6.0 0.00 0.00 0.00 67 1019.2
20221126224602 59 158 2.0 8.0 0.00 0.00 0.00 66 1019.1
20221126224305 59 135 2.0 8.0 0.00 0.00 0.00 68 1019.1
20221126223304 58 134 2.0 3.0 0.00 0.00 0.00 68 1019.1
20221126223059 58 157 1.0 5.0 0.00 0.00 0.00 68 1019.0
20221126222804 58 70 2.0 5.0 0.00 0.00 0.00 69 1019.1
20221126221804 57 131 1.0 7.0 0.00 0.00 0.00 69 1019.1
20221126221600 57 119 2.0 7.0 0.00 0.00 0.00 69 1018.9
20221126220304 56 146 1.0 3.0 0.00 0.00 0.00 71 1018.9
20221126220059 56 145 0.0 5.0 0.00 0.00 0.00 71 1018.8
20221126215804 56 177 1.0 3.0 0.00 0.00 0.00 72 1018.8
20221126215305 56 130 1.0 5.0 0.00 0.00 0.00 72 1018.8
20221126214626 55 148 1.0 6.0 0.00 0.00 0.00 72 1018.6
20221126214304 55 149 1.0 3.0 0.00 0.00 0.00 73 1018.6
20221126213803 55 151 1.0 3.0 0.00 0.00 0.00 72 1018.6
20221126213304 55 144 1.0 3.0 0.00 0.00 0.00 72 1018.6
20221126213108 54 140 0.0 4.0 0.00 0.00 0.00 72 1018.6
20221126212804 55 148 1.0 3.0 0.00 0.00 0.00 72 1018.6
20221126212305 55 148 1.0 3.0 0.00 0.00 0.00 72 1018.6
20221126211804 55 151 2.0 3.0 0.00 0.00 0.00 72 1018.4
20221126211618 54 127 1.0 6.0 0.00 0.00 0.00 71 1018.3
20221126211304 55 153 2.0 6.0 0.00 0.00 0.00 72 1018.4
20221126210803 55 130 2.0 5.0 0.00 0.00 0.00 72 1018.3
20221126210304 55 141 2.0 5.0 0.00 0.00 0.00 72 1018.2
20221126210104 55 122 1.0 6.0 0.00 0.00 0.00 71 1018.1
20221126205804 55 133 2.0 6.0 0.00 0.00 0.00 71 1018.1
20221126205305 55 139 1.0 3.0 0.00 0.00 0.00 71 1018.1
20221126204804 55 138 2.0 6.0 0.00 0.00 0.00 71 1018.0
20221126204602 55 152 1.0 7.0 0.00 0.00 0.00 71 1017.9
20221126204304 55 132 2.0 7.0 0.00 0.00 0.00 71 1017.9
20221126203805 55 133 2.0 3.0 0.00 0.00 0.00 71 1017.9
20221126203304 55 140 1.0 5.0 0.00 0.00 0.00 70 1017.9
20221126203115 55 146 1.0 7.0 0.00 0.00 0.00 70 1017.8
20221126201804 55 137 3.0 7.0 0.00 0.00 0.00 69 1017.9
20221126201625 55 173 1.0 7.0 0.00 0.00 0.00 69 1017.9
20221126201305 56 128 2.0 6.0 0.00 0.00 0.00 69 1017.9
20221126200304 56 149 3.0 7.0 0.00 0.00 0.00 69 1017.8
20221126200102 55 174 3.0 9.0 0.00 0.00 0.00 69 1017.7
20221126195804 56 139 2.0 9.0 0.00 0.00 0.00 69 1017.8
20221126195305 56 143 3.0 8.0 0.00 0.00 0.00 69 1017.8
20221126194804 56 146 3.0 10.0 0.00 0.00 0.00 70 1017.8
20221126194600 55 136 2.0 8.0 0.00 0.00 0.00 69 1017.7
20221126194304 56 141 2.0 5.0 0.00 0.00 0.00 70 1017.7
20221126193804 56 146 2.0 8.0 0.00 0.00 0.00 70 1017.8
20221126193304 56 145 3.0 7.0 0.00 0.00 0.00 70 1017.7
20221126193113 56 165 3.0 10.0 0.00 0.00 0.00 69 1017.6
20221126192804 56 153 3.0 10.0 0.00 0.00 0.00 70 1017.6
20221126192305 56 142 3.0 9.0 0.00 0.00 0.00 70 1017.6
20221126191804 56 146 2.0 7.0 0.00 0.00 0.00 70 1017.5
20221126191616 56 134 1.0 7.0 0.00 0.00 0.00 70 1017.4
20221126191303 56 148 2.0 6.0 0.00 0.00 0.00 71 1017.4
20221126190804 56 132 2.0 6.0 0.00 0.00 0.00 71 1017.4
20221126190304 56 152 2.0 5.0 0.00 0.00 0.00 72 1017.3
20221126190109 56 137 1.0 7.0 0.00 0.00 0.00 71 1017.2
20221126185804 57 152 2.0 6.0 0.00 0.00 0.00 72 1017.3
20221126185305 57 138 2.0 7.0 0.00 0.00 0.00 71 1017.3
20221126184804 57 153 2.0 6.0 0.00 0.00 0.00 71 1017.2
20221126184602 57 148 2.0 7.0 0.00 0.00 0.00 70 1017.2
20221126184303 57 148 2.0 5.0 0.00 0.00 0.00 70 1017.2
20221126183804 57 140 2.0 5.0 0.00 0.00 0.00 70 1017.2
20221126183304 57 111 1.0 8.0 0.00 0.00 0.00 70 1017.1
20221126183059 57 156 2.0 8.0 0.00 0.00 0.00 70 1017.1
20221126182305 58 146 2.0 6.0 0.00 0.00 0.00 70 1017.1
20221126181804 58 142 2.0 7.0 0.00 0.00 0.00 70 1017.1
20221126181631 57 146 2.0 7.0 0.00 0.00 0.00 70 1017.0
20221126181303 58 147 3.0 7.0 0.00 0.00 0.00 70 1017.0
20221126180804 58 148 2.0 3.0 0.00 0.00 0.00 70 1017.1
20221126180304 58 138 3.0 8.0 0.00 0.00 0.00 70 1017.0
20221126180129 58 151 3.0 8.0 0.00 0.00 0.00 69 1017.0
20221126175804 58 143 2.0 7.0 0.00 0.00 0.00 70 1017.1
20221126174805 58 138 3.0 7.0 0.00 0.00 0.00 71 1017.0
20221126174604 58 138 2.0 6.0 0.00 0.00 0.00 70 1017.0
20221126173804 58 158 2.0 6.0 0.00 0.00 0.00 70 1017.0
20221126173304 59 147 2.0 5.0 0.00 0.00 0.00 70 1016.9
20221126173102 58 138 1.0 8.0 0.00 0.00 0.00 70 1016.9
20221126172803 59 154 2.0 5.0 0.00 0.00 0.00 70 1017.0
20221126172305 59 149 4.0 8.0 0.00 0.00 0.00 69 1017.0
20221126171804 59 148 3.0 12.0 0.00 0.00 0.00 70 1017.0
20221126171614 58 152 3.0 11.0 0.00 0.00 0.00 70 1016.9
20221126171304 59 157 2.0 6.0 0.00 0.00 0.00 70 1017.0
20221126160804 60 165 2.0 7.0 0.00 0.00 0.00 69 1016.5
20221126160303 60 150 3.0 7.0 0.00 0.00 0.00 68 1016.5
20221126160105 60 130 3.0 8.0 0.00 0.00 0.00 68 1016.5
20221126154804 61 161 2.0 9.0 0.00 0.00 0.00 68 1016.5
20221126154602 60 138 4.0 10.0 0.00 0.00 0.00 67 1016.4
20221126154305 61 160 5.0 10.0 0.00 0.00 0.00 68 1016.5
20221126153805 61 161 5.0 10.0 0.00 0.00 0.00 68 1016.4
20221126153304 61 153 6.0 9.0 0.00 0.00 0.00 68 1016.4
20221126153059 61 135 4.0 10.0 0.00 0.00 0.00 67 1016.4
20221126152804 61 160 4.0 10.0 0.00 0.00 0.00 68 1016.5
20221126151804 61 158 3.0 10.0 0.00 0.00 0.00 69 1016.6
20221126151604 61 161 3.0 9.0 0.00 0.00 0.00 68 1016.5
20221126151304 62 168 4.0 7.0 0.00 0.00 0.00 69 1016.5
20221126150304 62 158 5.0 9.0 0.00 0.00 0.00 69 1016.6
20221126150104 61 173 4.0 12.0 0.00 0.00 0.00 68 1016.6
20221126145803 62 168 6.0 12.0 0.00 0.00 0.00 68 1016.6
20221126145305 62 158 5.0 12.0 0.00 0.00 0.00 68 1016.6
20221126144804 62 157 5.0 12.0 0.00 0.00 0.00 68 1016.6
20221126144605 62 161 6.0 11.0 0.00 0.00 0.00 67 1016.5
20221126143804 62 163 3.0 10.0 0.00 0.00 0.00 68 1016.6
20221126143102 62 174 4.0 11.0 0.00 0.00 0.00 67 1016.5
20221126142305 63 164 5.0 10.0 0.00 0.00 0.00 67 1016.6
20221126142123 63 144 4.0 12.0 0.00 0.00 0.00 65 1016.6
20221126141303 63 162 5.0 10.0 0.00 0.00 0.00 66 1016.7
20221126140123 63 163 5.0 13.0 0.00 0.00 0.00 65 1016.7
20221126135306 64 173 6.0 13.0 0.00 0.00 0.00 65 1016.7
20221126134804 64 173 6.0 12.0 0.00 0.00 0.00 64 1016.7
20221126134559 64 136 6.0 12.0 0.00 0.00 0.00 64 1016.6
20221126134304 65 152 6.0 12.0 0.00 0.00 0.00 64 1016.6
20221126133804 65 157 7.0 12.0 0.00 0.00 0.00 64 1016.6
20221126133307 65 163 5.0 12.0 0.00 0.00 0.00 63 1016.6
20221126133108 65 180 5.0 12.0 0.00 0.00 0.00 63 1016.5
20221126132306 66 158 6.0 12.0 0.00 0.00 0.00 62 1016.6
20221126131804 66 169 6.0 12.0 0.00 0.00 0.00 62 1016.5
20221126131610 65 157 5.0 12.0 0.00 0.00 0.00 62 1016.4
20221126131306 66 170 6.0 12.0 0.00 0.00 0.00 62 1016.5
20221126130118 65 192 4.0 12.0 0.00 0.00 0.00 66 1016.3
20221126125804 66 157 6.0 12.0 0.00 0.00 0.00 67 1016.4
20221126125305 66 159 6.0 12.0 0.00 0.00 0.00 68 1016.5
20221126124806 66 173 5.0 14.0 0.00 0.00 0.00 70 1016.5
20221126124609 66 131 6.0 15.0 0.00 0.00 0.00 70 1016.4
20221126124304 66 178 7.0 12.0 0.00 0.00 0.00 72 1016.3
20221126123804 66 171 9.0 15.0 0.00 0.00 0.00 72 1016.3
20221126123304 66 173 9.0 18.0 0.00 0.00 0.00 72 1016.3
20221126123108 66 153 9.0 21.0 0.00 0.00 0.00 71 1016.3
20221126121804 66 176 9.0 16.0 0.00 0.00 0.00 71 1016.2
20221126121559 66 178 6.0 17.0 0.00 0.00 0.00 71 1016.1
20221126121304 66 170 8.0 15.0 0.00 0.00 0.00 71 1016.2
20221126120804 66 177 9.0 17.0 0.00 0.00 0.00 70 1016.0
20221126120304 66 177 8.0 15.0 0.00 0.00 0.00 70 1016.1
20221126120102 66 130 7.0 19.0 0.00 0.00 0.00 69 1016.0
20221126115804 66 180 8.0 15.0 0.00 0.00 0.00 69 1016.0
20221126114804 66 190 7.0 14.0 0.00 0.00 0.00 68 1016.1
20221126114559 66 151 7.0 16.0 0.00 0.00 0.00 68 1016.0
20221126114304 66 181 7.0 16.0 0.00 0.00 0.00 67 1016.1
20221126113803 66 188 8.0 18.0 0.00 0.00 0.00 67 1016.1
20221126113306 66 184 7.0 17.0 0.00 0.00 0.00 67 1016.1
20221126113101 66 144 9.0 17.0 0.00 0.00 0.00 66 1016.0
20221126112305 66 179 7.0 15.0 0.00 0.00 0.00 68 1016.1
20221126111805 66 184 6.0 14.0 0.00 0.00 0.00 67 1016.1
20221126111602 66 211 7.0 18.0 0.00 0.00 0.00 67 1016.0
20221126111304 66 187 10.0 15.0 0.00 0.00 0.00 66 1016.1
20221126110804 66 187 7.0 20.0 0.00 0.00 0.00 68 1016.0
20221126110105 66 203 9.0 19.0 0.00 0.00 0.00 67 1016.0
20221126105804 67 191 9.0 17.0 0.00 0.00 0.00 68 1016.1
20221126105305 67 185 10.0 18.0 0.00 0.00 0.00 66 1016.0
20221126104805 67 193 9.0 18.0 0.00 0.00 0.00 67 1016.1
20221126104600 66 190 10.0 19.0 0.00 0.00 0.00 66 1016.0
20221126103805 67 199 8.0 16.0 0.00 0.00 0.00 67 1016.1
20221126103306 67 189 9.0 17.0 0.00 0.00 0.00 67 1016.1
20221126103120 66 150 8.0 23.0 0.00 0.00 0.00 67 1016.0
20221126102306 67 177 11.0 23.0 0.00 0.00 0.00 65 1016.1
20221126101805 67 186 12.0 20.0 0.00 0.00 0.00 65 1016.0
20221126101605 67 197 11.0 21.0 0.00 0.00 0.00 65 1015.9
20221126101304 68 184 10.0 20.0 0.00 0.00 0.00 66 1016.0
20221126100104 67 234 7.0 20.0 0.00 0.00 0.00 67 1015.9
20221126095807 68 187 12.0 20.0 0.00 0.00 0.00 66 1015.9
20221126095305 68 190 9.0 18.0 0.00 0.00 0.00 65 1015.9
20221126094804 68 199 10.0 20.0 0.00 0.00 0.00 66 1015.9
20221126094603 68 215 9.0 17.0 0.00 0.00 0.00 66 1015.8
20221126094304 68 198 8.0 17.0 0.00 0.00 0.00 66 1015.8
20221126093805 68 185 10.0 18.0 0.00 0.00 0.00 64 1015.9
20221126093304 69 189 11.0 17.0 0.00 0.00 0.00 63 1015.9
20221126093059 68 263 9.0 15.0 0.00 0.00 0.00 63 1015.9
20221126092804 69 188 7.0 14.0 0.00 0.00 0.00 64 1015.9
20221126092306 69 189 9.0 20.0 0.00 0.00 0.00 62 1015.9
20221126091804 69 196 9.0 16.0 0.00 0.00 0.00 64 1015.9
20221126091613 68 205 8.0 17.0 0.00 0.00 0.00 63 1015.9
20221126091306 69 189 6.0 17.0 0.00 0.00 0.00 65 1015.9
20221126090806 69 192 9.0 18.0 0.00 0.00 0.00 64 1015.9
20221126090304 69 186 9.0 17.0 0.00 0.00 0.00 64 1015.8
20221126090127 68 198 8.0 18.0 0.00 0.00 0.00 63 1015.8
20221126085306 69 192 12.0 17.0 0.00 0.00 0.00 61 1015.9
20221126084803 69 194 7.0 16.0 0.00 0.00 0.00 62 1015.9
20221126084559 68 181 11.0 22.0 0.00 0.00 0.00 61 1015.8
20221126084305 69 191 10.0 16.0 0.00 0.00 0.00 61 1015.9
20221126083804 69 198 10.0 22.0 0.00 0.00 0.00 61 1016.0
20221126083304 69 198 10.0 16.0 0.00 0.00 0.00 59 1015.9
20221126083103 69 190 7.0 18.0 0.00 0.00 0.00 59 1015.8
20221126082804 70 192 9.0 16.0 0.00 0.00 0.00 61 1015.9
20221126081803 70 203 9.0 18.0 0.00 0.00 0.00 61 1015.8
20221126081606 69 217 11.0 21.0 0.00 0.00 0.00 61 1015.8
20221126080804 70 193 9.0 18.0 0.00 0.00 0.00 61 1015.9
20221126080104 69 211 10.0 17.0 0.00 0.00 0.00 60 1016.0
20221126075803 70 197 9.0 16.0 0.00 0.00 0.00 60 1015.9
20221126074803 70 207 12.0 23.0 0.00 0.00 0.00 59 1016.1
20221126074621 70 200 8.0 18.0 0.00 0.00 0.00 59 1016.0
20221126074304 70 198 9.0 17.0 0.00 0.00 0.00 58 1016.1
20221126073304 71 187 10.0 17.0 0.00 0.00 0.00 56 1016.0
20221126073121 70 187 9.0 20.0 0.00 0.00 0.00 57 1016.1
20221126072804 71 202 10.0 20.0 0.00 0.00 0.00 55 1016.0
20221126071807 71 204 11.0 20.0 0.00 0.00 0.00 58 1016.0
20221126071632 71 222 8.0 21.0 0.00 0.00 0.00 57 1016.0
20221126071304 71 198 7.0 21.0 0.00 0.00 0.00 59 1016.0
20221126070304 71 192 10.0 20.0 0.00 0.00 0.00 56 1016.1
20221126070105 71 233 10.0 21.0 0.00 0.00 0.00 56 1016.1
20221126065804 71 207 9.0 21.0 0.00 0.00 0.00 55 1016.1
20221126065305 71 211 10.0 17.0 0.00 0.00 0.00 55 1016.1
20221126064803 71 187 9.0 17.0 0.00 0.00 0.00 54 1016.1
20221126064608 71 202 9.0 21.0 0.00 0.00 0.00 55 1016.0
20221126064312 71 193 9.0 21.0 0.00 0.00 0.00 56 1016.1
20221126063804 72 208 9.0 15.0 0.00 0.00 0.00 55 1016.1
20221126063304 71 211 8.0 20.0 0.00 0.00 0.00 55 1016.0
20221126063103 71 182 10.0 20.0 0.00 0.00 0.00 54 1015.9
20221126062305 72 202 10.0 20.0 0.00 0.00 0.00 54 1016.1
20221126061805 72 198 11.0 18.0 0.00 0.00 0.00 54 1016.1
20221126061605 71 136 10.0 21.0 0.00 0.00 0.00 54 1016.0
20221126061309 72 192 9.0 18.0 0.00 0.00 0.00 54 1016.1
20221126060804 72 198 8.0 21.0 0.00 0.00 0.00 56 1016.1
20221126060304 72 209 9.0 18.0 0.00 0.00 0.00 56 1016.1
20221126060112 72 154 9.0 18.0 0.00 0.00 0.00 55 1016.1
20221126055804 72 204 9.0 18.0 0.00 0.00 0.00 55 1016.1
20221126055307 72 202 9.0 18.0 0.00 0.00 0.00 57 1016.2
20221126054804 72 198 9.0 20.0 0.00 0.00 0.00 58 1016.2
20221126054605 71 196 10.0 21.0 0.00 0.00 0.00 57 1016.1
20221126054304 71 195 11.0 21.0 0.00 0.00 0.00 56 1016.3
20221126053804 72 197 11.0 20.0 0.00 0.00 0.00 53 1016.3
20221126053304 72 205 9.0 18.0 0.00 0.00 0.00 58 1016.4
20221126053100 71 155 10.0 19.0 0.00 0.00 0.00 59 1016.3
20221126052804 72 188 10.0 20.0 0.00 0.00 0.00 57 1016.4
20221126052306 73 204 9.0 17.0 0.00 0.00 0.00 55 1016.3
20221126051804 72 200 7.0 21.0 0.00 0.00 0.00 56 1016.3
20221126051600 72 148 11.0 21.0 0.00 0.00 0.00 54 1016.3
20221126050804 72 201 10.0 21.0 0.00 0.00 0.00 58 1016.4
20221126050118 72 223 9.0 16.0 0.00 0.00 0.00 57 1016.4
20221126045804 73 209 9.0 15.0 0.00 0.00 0.00 60 1016.3
20221126045305 72 193 10.0 16.0 0.00 0.00 0.00 61 1016.5
20221126044805 72 223 9.0 20.0 0.00 0.00 0.00 59 1016.6
20221126044635 72 198 9.0 20.0 0.00 0.00 0.00 60 1016.5
20221126044304 72 224 9.0 20.0 0.00 0.00 0.00 61 1016.5
20221126043805 72 197 9.0 15.0 0.00 0.00 0.00 60 1016.7
20221126043306 72 205 7.0 17.0 0.00 0.00 0.00 61 1016.6
20221126043103 72 169 8.0 18.0 0.00 0.00 0.00 62 1016.6
20221126041804 72 204 8.0 15.0 0.00 0.00 0.00 62 1016.6
20221126041616 72 180 7.0 17.0 0.00 0.00 0.00 63 1016.6
20221126041304 72 202 8.0 16.0 0.00 0.00 0.00 63 1016.7
20221126040305 72 221 10.0 16.0 0.00 0.00 0.00 61 1016.8
20221126040100 72 207 7.0 15.0 0.00 0.00 0.00 62 1016.8
20221126035804 72 219 6.0 14.0 0.00 0.00 0.00 64 1016.9
20221126035306 72 211 8.0 15.0 0.00 0.00 0.00 62 1017.1
20221126034805 72 206 7.0 12.0 0.00 0.00 0.00 63 1017.0
20221126034559 72 170 7.0 15.0 0.00 0.00 0.00 62 1016.9
20221126034305 72 214 7.0 15.0 0.00 0.00 0.00 64 1016.9
20221126033805 72 195 8.0 15.0 0.00 0.00 0.00 63 1017.2
20221126033305 72 197 7.0 13.0 0.00 0.00 0.00 63 1017.2
20221126033102 72 238 8.0 15.0 0.00 0.00 0.00 63 1017.2
20221126032305 72 208 8.0 15.0 0.00 0.00 0.00 59 1017.4
20221126031804 72 200 7.0 14.0 0.00 0.00 0.00 61 1017.3
20221126031601 71 195 8.0 17.0 0.00 0.00 0.00 58 1017.3
20221126031306 72 187 7.0 13.0 0.00 0.00 0.00 59 1017.4
20221126030804 72 182 6.0 17.0 0.00 0.00 0.00 59 1017.4
20221126030100 72 235 5.0 14.0 0.00 0.00 0.00 60 1017.4